createdAt,value
2022-10-13T00:01:24.287Z,77.96
2022-10-13T00:03:53.264Z,77.84
2022-10-13T00:06:25.691Z,78.05
2022-10-13T00:08:55.043Z,77.96
2022-10-13T00:11:26.936Z,77.82
2022-10-13T00:13:57.262Z,78.58
2022-10-13T00:16:26.575Z,78.52
2022-10-13T00:18:55.643Z,78.65
2022-10-13T00:21:26.123Z,78.54
2022-10-13T00:23:55.508Z,78.39
2022-10-13T00:26:26.112Z,78.25
2022-10-13T00:28:56.047Z,78.19
2022-10-13T00:31:28.738Z,78.56
2022-10-13T00:34:00.117Z,78.72
2022-10-13T00:36:29.284Z,78.66
2022-10-13T00:38:58.560Z,78.78
2022-10-13T00:41:26.951Z,78.72
2022-10-13T00:44:03.293Z,78.78
2022-10-13T00:46:40.716Z,79.12
2022-10-13T00:49:14.552Z,79.44
2022-10-13T00:51:50.369Z,79.40
2022-10-13T00:54:24.786Z,79.01
2022-10-13T00:56:54.470Z,79.76
2022-10-13T00:59:29.409Z,79.21
2022-10-13T01:01:59.632Z,79.56
2022-10-13T01:04:33.473Z,79.70
2022-10-13T01:07:02.885Z,79.62
2022-10-13T01:09:37.708Z,79.58
2022-10-13T01:12:30.256Z,79.82
2022-10-13T01:15:31.247Z,79.79
2022-10-13T01:18:09.828Z,79.86
2022-10-13T01:20:48.815Z,80.16
2022-10-13T01:23:51.012Z,80.48
2022-10-13T01:26:54.178Z,80.53
2022-10-13T01:30:00.043Z,80.71
2022-10-13T01:32:34.495Z,80.83
2022-10-13T01:35:17.156Z,81.39
2022-10-13T01:37:54.487Z,81.15
2022-10-13T01:40:41.503Z,81.53
2022-10-13T01:43:19.891Z,81.50
2022-10-13T01:45:54.318Z,81.67
2022-10-13T01:48:22.760Z,81.72
2022-10-13T01:50:54.344Z,81.96
2022-10-13T01:53:23.802Z,81.91
2022-10-13T01:55:57.811Z,82.20
2022-10-13T01:58:30.107Z,82.29
2022-10-13T02:00:58.313Z,82.14
2022-10-13T02:03:58.587Z,82.21
2022-10-13T02:06:50.420Z,82.23
2022-10-13T02:09:38.274Z,82.47
2022-10-13T02:12:12.524Z,82.46
2022-10-13T02:14:44.407Z,82.43
2022-10-13T02:17:13.296Z,82.29
2022-10-13T02:19:44.254Z,82.43
2022-10-13T02:22:15.100Z,82.36
2022-10-13T02:24:43.351Z,82.32
2022-10-13T02:27:11.396Z,82.28
2022-10-13T02:29:56.963Z,82.22
2022-10-13T02:32:28.783Z,82.28
2022-10-13T02:34:57.263Z,82.38
2022-10-13T02:37:25.972Z,82.34
2022-10-13T02:39:54.181Z,82.28
2022-10-13T02:42:22.551Z,82.30
2022-10-13T02:44:51.231Z,82.24
2022-10-13T02:47:19.390Z,82.35
2022-10-13T02:49:47.771Z,82.15
2022-10-13T02:52:15.795Z,82.31
2022-10-13T02:54:44.239Z,82.50
2022-10-13T02:57:12.305Z,82.17
2022-10-13T02:59:44.810Z,82.26
2022-10-13T03:02:12.920Z,82.13
2022-10-13T03:04:41.056Z,82.01
2022-10-13T03:07:09.383Z,82.13
2022-10-13T03:09:37.529Z,82.01
2022-10-13T03:12:05.815Z,82.29
2022-10-13T03:14:36.137Z,82.10
2022-10-13T03:17:04.360Z,82.15
2022-10-13T03:19:33.506Z,82.24
2022-10-13T03:22:01.521Z,82.03
2022-10-13T03:24:29.765Z,82.18
2022-10-13T03:26:57.805Z,82.21
2022-10-13T03:29:25.917Z,82.17
2022-10-13T03:31:54.038Z,82.01
2022-10-13T03:34:22.256Z,82.11
2022-10-13T03:36:50.253Z,81.96
2022-10-13T03:39:18.385Z,81.84
2022-10-13T03:41:46.531Z,81.87
2022-10-13T03:44:14.848Z,81.88
2022-10-13T03:46:42.879Z,81.89
2022-10-13T03:49:12.637Z,81.76
2022-10-13T03:51:40.992Z,81.85
2022-10-13T03:54:12.857Z,81.70
2022-10-13T03:56:41.241Z,81.73
2022-10-13T03:59:12.945Z,81.75
2022-10-13T04:01:41.329Z,81.74
2022-10-13T04:04:12.340Z,81.81
2022-10-13T04:06:42.985Z,81.31
2022-10-13T04:09:11.220Z,81.60
2022-10-13T04:11:39.392Z,81.69
2022-10-13T04:14:07.613Z,81.68
2022-10-13T04:16:35.664Z,81.67
2022-10-13T04:19:06.281Z,81.52
2022-10-13T04:21:36.152Z,81.66
2022-10-13T04:24:05.452Z,81.34
2022-10-13T04:26:35.389Z,81.51
2022-10-13T04:29:10.143Z,81.54
2022-10-13T04:31:40.028Z,81.39
2022-10-13T04:34:08.719Z,81.42
2022-10-13T04:36:37.353Z,81.35
2022-10-13T04:39:05.886Z,81.57
2022-10-13T04:41:35.120Z,81.33
2022-10-13T04:44:03.358Z,81.55
2022-10-13T04:46:31.447Z,81.59
2022-10-13T04:48:59.678Z,81.55
2022-10-13T04:51:33.485Z,81.67
2022-10-13T04:54:02.110Z,81.54
2022-10-13T04:56:30.145Z,81.55
2022-10-13T04:59:06.064Z,81.84
2022-10-13T05:01:34.709Z,81.69
2022-10-13T05:04:04.541Z,81.53
2022-10-13T05:06:53.413Z,81.73
2022-10-13T05:09:27.324Z,81.56
2022-10-13T05:11:55.690Z,81.54
2022-10-13T05:14:24.157Z,81.44
2022-10-13T05:16:52.300Z,81.47
2022-10-13T05:19:20.592Z,81.55
2022-10-13T05:21:50.488Z,81.52
2022-10-13T05:24:20.870Z,81.59
2022-10-13T05:26:50.887Z,81.62
2022-10-13T05:29:19.051Z,81.44
2022-10-13T05:31:47.532Z,81.24
2022-10-13T05:34:16.236Z,81.51
2022-10-13T05:36:44.504Z,81.47
2022-10-13T05:39:13.229Z,81.53
2022-10-13T05:41:41.748Z,81.57
2022-10-13T05:44:14.838Z,81.50
2022-10-13T05:46:54.516Z,81.39
2022-10-13T05:49:22.607Z,81.37
2022-10-13T05:51:54.937Z,81.27
2022-10-13T05:54:30.224Z,81.16
2022-10-13T05:57:11.280Z,81.26
2022-10-13T05:59:43.455Z,81.08
2022-10-13T06:02:13.940Z,81.12
2022-10-13T06:04:46.743Z,81.11
2022-10-13T06:07:14.873Z,80.99
2022-10-13T06:09:44.539Z,80.88
2022-10-13T06:12:13.216Z,80.83
2022-10-13T06:14:42.736Z,80.78
2022-10-13T06:17:13.430Z,80.88
2022-10-13T06:19:45.538Z,80.82
2022-10-13T06:22:13.722Z,80.57
2022-10-13T06:24:41.925Z,80.66
2022-10-13T06:27:11.208Z,80.30
2022-10-13T06:29:39.836Z,80.22
2022-10-13T06:32:08.029Z,80.08
2022-10-13T06:34:36.684Z,80.00
2022-10-13T06:37:05.041Z,79.92
2022-10-13T06:39:33.477Z,80.03
2022-10-13T06:42:04.558Z,79.86
2022-10-13T06:44:35.581Z,79.71
2022-10-13T06:47:05.509Z,79.42
2022-10-13T06:49:33.986Z,79.39
2022-10-13T06:52:02.313Z,79.40
2022-10-13T06:54:31.124Z,79.27
2022-10-13T06:56:59.362Z,79.02
2022-10-13T06:59:28.006Z,79.03
2022-10-13T07:01:56.423Z,78.67
2022-10-13T07:04:26.044Z,78.61
2022-10-13T07:06:56.504Z,78.40
2022-10-13T07:09:24.773Z,78.37
2022-10-13T07:11:53.049Z,78.26
2022-10-13T07:14:21.845Z,77.98
2022-10-13T07:16:50.181Z,77.78
2022-10-13T07:19:18.442Z,77.43
2022-10-13T07:21:46.599Z,77.33
2022-10-13T07:24:14.867Z,77.36
2022-10-13T07:26:43.289Z,77.04
2022-10-13T07:29:11.917Z,76.68
2022-10-13T07:31:40.398Z,76.80
2022-10-13T07:34:08.681Z,76.19
2022-10-13T07:36:38.557Z,76.16
2022-10-13T07:39:07.169Z,76.21
2022-10-13T07:41:36.737Z,76.01
2022-10-13T07:44:05.585Z,75.53
2022-10-13T07:46:34.192Z,75.13
2022-10-13T07:49:02.322Z,74.89
2022-10-13T07:51:30.957Z,74.53
2022-10-13T07:53:59.598Z,74.52
2022-10-13T07:56:27.982Z,73.81
2022-10-13T07:58:56.181Z,73.19
2022-10-13T08:01:24.766Z,72.93
2022-10-13T08:03:55.829Z,73.28
2022-10-13T08:06:24.262Z,73.09
2022-10-13T08:08:55.513Z,72.37
2022-10-13T08:11:24.809Z,72.21
2022-10-13T08:13:56.153Z,71.29
2022-10-13T08:16:24.737Z,70.77
2022-10-13T08:18:53.325Z,70.56
2022-10-13T08:21:57.762Z,69.77
2022-10-13T08:24:15.801Z,69.53
2022-10-13T08:26:46.733Z,68.77
2022-10-13T08:29:21.771Z,68.15
2022-10-13T08:31:54.793Z,67.62
2022-10-13T08:34:24.818Z,66.45
2022-10-13T08:36:56.489Z,65.95
2022-10-13T08:39:25.331Z,65.10
2022-10-13T08:41:57.510Z,64.08
2022-10-13T08:47:47.389Z,62.84
2022-10-13T08:50:19.728Z,61.22
2022-10-13T08:52:58.618Z,59.67
2022-10-13T08:55:47.741Z,57.92
2022-10-13T08:58:26.028Z,57.82
2022-10-13T09:01:06.894Z,56.57
2022-10-13T09:03:52.675Z,55.83
2022-10-13T09:06:32.000Z,54.73
2022-10-13T09:09:15.690Z,53.32
2022-10-13T09:11:48.258Z,52.55
2022-10-13T09:14:22.312Z,51.53
2022-10-13T09:16:52.916Z,51.00
2022-10-13T09:19:27.569Z,48.94
2022-10-13T09:21:59.047Z,47.31
2022-10-13T09:24:27.745Z,47.81
2022-10-13T09:27:12.378Z,47.95
2022-10-13T09:29:41.765Z,48.46
2022-10-13T09:32:24.009Z,47.52
2022-10-13T09:35:23.313Z,46.30
2022-10-13T09:38:22.153Z,45.61
2022-10-13T09:41:00.451Z,44.13
2022-10-13T09:43:43.926Z,44.12
2022-10-13T09:46:24.100Z,43.92
2022-10-13T09:48:55.675Z,42.50
2022-10-13T09:51:42.053Z,41.04
2022-10-13T09:54:42.011Z,40.73
2022-10-13T09:57:31.237Z,41.68
2022-10-13T10:00:14.994Z,40.94
2022-10-13T10:02:43.368Z,41.19
2022-10-13T10:05:23.719Z,40.42
2022-10-13T10:07:54.280Z,39.34
2022-10-13T10:10:33.344Z,39.98
2022-10-13T10:13:04.330Z,41.85
2022-10-13T10:16:07.732Z,40.76
2022-10-13T10:18:58.935Z,39.84
2022-10-13T10:21:43.404Z,39.79
2022-10-13T10:24:25.651Z,40.32
2022-10-13T10:27:06.237Z,38.83
2022-10-13T10:29:48.744Z,39.02
2022-10-13T10:32:29.020Z,39.39
2022-10-13T10:35:02.460Z,38.23
2022-10-13T10:37:52.391Z,38.22
2022-10-13T10:40:35.045Z,37.24
2022-10-13T10:43:21.855Z,36.65
2022-10-13T10:45:50.355Z,37.07
2022-10-13T10:48:25.125Z,36.69
2022-10-13T10:50:54.715Z,36.80
2022-10-13T10:53:49.241Z,35.61
2022-10-13T10:56:30.019Z,36.18
2022-10-13T10:59:26.768Z,36.70
2022-10-13T11:02:04.984Z,35.70
2022-10-13T11:04:46.035Z,36.31
2022-10-13T11:07:34.699Z,35.24
2022-10-13T11:10:05.337Z,35.66
2022-10-13T11:13:09.228Z,35.87
2022-10-13T11:15:47.094Z,35.05
2022-10-13T11:18:53.008Z,34.98
2022-10-13T11:21:22.472Z,34.84
2022-10-13T11:23:50.925Z,34.85
2022-10-13T11:26:31.372Z,35.03
2022-10-13T11:29:00.070Z,34.19
2022-10-13T11:31:48.361Z,33.77
2022-10-13T11:34:28.556Z,33.98
2022-10-13T11:37:00.769Z,33.75
2022-10-13T11:39:41.384Z,33.59
2022-10-13T11:42:12.382Z,33.55
2022-10-13T11:44:58.763Z,33.78
2022-10-13T11:47:55.967Z,33.63
2022-10-13T11:50:50.861Z,33.97
2022-10-13T11:53:24.816Z,33.67
2022-10-13T11:56:03.103Z,32.97
2022-10-13T11:58:33.897Z,33.44
2022-10-13T12:01:12.100Z,33.48
2022-10-13T12:03:45.172Z,34.53
2022-10-13T12:06:34.222Z,34.91
2022-10-13T12:09:20.049Z,35.01
2022-10-13T12:11:57.232Z,35.17
2022-10-13T12:17:27.449Z,34.38
2022-10-13T12:19:59.239Z,33.54
2022-10-13T12:22:30.868Z,33.11
2022-10-13T12:25:07.203Z,33.56
2022-10-13T12:27:50.565Z,34.27
2022-10-13T12:30:49.799Z,34.82
2022-10-13T12:33:29.895Z,34.36
2022-10-13T12:36:19.075Z,34.65
2022-10-13T12:38:53.133Z,34.08
2022-10-13T12:41:28.792Z,34.43
2022-10-13T12:44:05.768Z,34.10
2022-10-13T12:46:39.903Z,33.28
2022-10-13T12:49:14.685Z,33.90
2022-10-13T12:51:46.087Z,33.33
2022-10-13T12:54:24.575Z,33.14
2022-10-13T12:56:57.286Z,34.29
2022-10-13T12:59:27.939Z,34.52
2022-10-13T13:02:02.131Z,34.00
2022-10-13T13:04:32.889Z,33.43
2022-10-13T13:07:03.699Z,33.61
2022-10-13T13:09:39.303Z,33.56
2022-10-13T13:12:13.231Z,34.03
2022-10-13T13:14:43.349Z,33.52
2022-10-13T13:17:12.891Z,33.06
2022-10-13T13:19:43.506Z,32.52
2022-10-13T13:22:12.442Z,31.55
2022-10-13T13:24:40.949Z,30.24
2022-10-13T13:27:39.206Z,30.45
2022-10-13T13:30:15.786Z,30.11
2022-10-13T13:32:43.790Z,30.55
2022-10-13T13:35:11.930Z,30.39
2022-10-13T13:37:49.952Z,29.99
2022-10-13T13:40:23.662Z,29.98
2022-10-13T13:42:52.095Z,29.53
2022-10-13T13:45:27.044Z,28.98
2022-10-13T13:48:00.353Z,29.73
2022-10-13T13:50:34.385Z,29.72
2022-10-13T13:53:03.015Z,29.84
2022-10-13T13:55:31.491Z,30.54
2022-10-13T13:57:59.549Z,31.42
2022-10-13T14:00:27.929Z,31.88
2022-10-13T14:02:57.357Z,31.84
2022-10-13T14:05:25.834Z,31.83
2022-10-13T14:07:56.845Z,31.25
2022-10-13T14:10:26.098Z,31.40
2022-10-13T14:12:54.219Z,31.61
2022-10-13T14:15:25.845Z,31.97
2022-10-13T14:17:57.356Z,32.17
2022-10-13T14:20:25.456Z,32.20
2022-10-13T14:22:53.883Z,32.43
2022-10-13T14:25:22.439Z,32.11
2022-10-13T14:27:50.832Z,32.34
2022-10-13T14:30:19.112Z,31.98
2022-10-13T14:32:47.179Z,31.84
2022-10-13T14:35:15.258Z,31.64
2022-10-13T14:37:43.491Z,32.34
2022-10-13T14:40:11.568Z,31.87
2022-10-13T14:42:39.963Z,32.22
2022-10-13T14:45:16.051Z,32.27
2022-10-13T14:47:45.262Z,32.94
2022-10-13T14:50:13.875Z,33.38
2022-10-13T14:52:42.128Z,34.43
2022-10-13T14:55:10.231Z,35.32
2022-10-13T14:57:39.311Z,36.32
2022-10-13T15:00:08.059Z,37.52
2022-10-13T15:02:37.073Z,38.36
2022-10-13T15:05:06.627Z,38.96
2022-10-13T15:07:38.972Z,39.75
2022-10-13T15:10:09.424Z,40.59
2022-10-13T15:12:37.584Z,41.46
2022-10-13T15:15:06.305Z,42.30
2022-10-13T15:17:34.751Z,43.01
2022-10-13T15:20:04.829Z,43.66
2022-10-13T15:22:32.909Z,44.51
2022-10-13T15:25:01.721Z,45.09
2022-10-13T15:27:29.977Z,45.63
2022-10-13T15:29:58.259Z,46.17
2022-10-13T15:32:26.654Z,46.91
2022-10-13T15:35:01.969Z,47.32
2022-10-13T15:37:31.433Z,47.79
2022-10-13T15:39:59.575Z,48.23
2022-10-13T15:42:27.609Z,48.53
2022-10-13T15:45:11.813Z,49.14
2022-10-13T15:47:40.349Z,49.61
2022-10-13T15:50:10.702Z,50.08
2022-10-13T15:52:40.531Z,50.44
2022-10-13T15:55:11.580Z,51.15
2022-10-13T15:57:40.589Z,51.30
2022-10-13T16:00:11.317Z,51.75
2022-10-13T16:02:44.023Z,52.12
2022-10-13T16:05:13.368Z,52.54
2022-10-13T16:07:42.077Z,52.87
2022-10-13T16:10:12.562Z,53.10
2022-10-13T16:12:46.835Z,53.45
2022-10-13T16:15:18.292Z,53.73
2022-10-13T16:17:46.744Z,53.92
2022-10-13T16:20:15.201Z,54.10
2022-10-13T16:22:43.468Z,54.33
2022-10-13T16:25:12.493Z,54.59
2022-10-13T16:27:44.227Z,54.86
2022-10-13T16:30:13.438Z,55.00
2022-10-13T16:32:42.000Z,55.15
2022-10-13T16:35:10.393Z,55.47
2022-10-13T16:37:38.670Z,55.61
2022-10-13T16:40:07.721Z,55.84
2022-10-13T16:42:36.760Z,56.02
2022-10-13T16:45:05.656Z,56.13
2022-10-13T16:47:33.953Z,56.37
2022-10-13T16:50:06.256Z,56.55
2022-10-13T16:52:34.801Z,56.90
2022-10-13T16:55:04.556Z,56.81
2022-10-13T16:57:33.475Z,56.94
2022-10-13T17:00:02.005Z,57.10
2022-10-13T17:02:30.508Z,57.26
2022-10-13T17:04:58.706Z,57.48
2022-10-13T17:07:27.065Z,57.39
2022-10-13T17:09:56.020Z,57.65
2022-10-13T17:12:24.237Z,57.89
2022-10-13T17:14:52.544Z,57.91
2022-10-13T17:17:21.145Z,57.91
2022-10-13T17:19:50.517Z,58.38
2022-10-13T17:22:18.848Z,58.36
2022-10-13T17:24:48.570Z,58.35
2022-10-13T17:27:17.158Z,58.50
2022-10-13T17:29:45.699Z,58.64
2022-10-13T17:32:13.954Z,58.80
2022-10-13T17:34:42.156Z,58.96
2022-10-13T17:37:10.675Z,59.12
2022-10-13T17:39:39.474Z,59.02
2022-10-13T17:42:08.012Z,59.28
2022-10-13T17:44:36.272Z,59.26
2022-10-13T17:47:05.064Z,59.41
2022-10-13T17:49:33.352Z,59.54
2022-10-13T17:52:01.928Z,59.75
2022-10-13T17:54:30.604Z,59.75
2022-10-13T17:56:59.007Z,59.89
2022-10-13T17:59:27.307Z,60.24
2022-10-13T18:01:56.117Z,60.12
2022-10-13T18:04:24.403Z,60.26
2022-10-13T18:06:53.580Z,60.33
2022-10-13T18:09:24.680Z,60.54
2022-10-13T18:11:54.632Z,60.69
2022-10-13T18:14:24.607Z,60.56
2022-10-13T18:16:53.664Z,60.79
2022-10-13T18:19:22.344Z,60.89
2022-10-13T18:21:52.970Z,60.78
2022-10-13T18:24:21.553Z,60.84
2022-10-13T18:26:49.740Z,60.94
2022-10-13T18:29:17.988Z,61.20
2022-10-13T18:31:46.801Z,61.26
2022-10-13T18:34:18.682Z,61.33
2022-10-13T18:36:49.379Z,61.39
2022-10-13T18:39:20.204Z,61.73
2022-10-13T18:41:50.829Z,61.83
2022-10-13T18:44:20.384Z,61.71
2022-10-13T18:46:53.961Z,61.80
2022-10-13T18:49:31.096Z,61.83
2022-10-13T18:52:01.480Z,61.97
2022-10-13T18:54:30.773Z,62.08
2022-10-13T18:56:59.339Z,62.00
2022-10-13T18:59:27.715Z,62.14
2022-10-13T19:01:55.892Z,62.26
2022-10-13T19:04:26.321Z,62.12
2022-10-13T19:06:55.557Z,62.08
2022-10-13T19:09:25.100Z,62.20
2022-10-13T19:11:55.847Z,62.43
2022-10-13T19:14:24.743Z,62.50
2022-10-13T19:16:52.989Z,62.31
2022-10-13T19:19:21.324Z,62.40
2022-10-13T19:21:49.677Z,62.44
2022-10-13T19:24:17.903Z,62.46
2022-10-13T19:26:46.422Z,62.57
2022-10-13T19:29:16.236Z,62.62
2022-10-13T19:31:44.927Z,62.64
2022-10-13T19:34:13.820Z,62.81
2022-10-13T19:36:46.847Z,62.73
2022-10-13T19:39:22.495Z,62.77
2022-10-13T19:41:53.010Z,62.97
2022-10-13T19:44:23.091Z,63.05
2022-10-13T19:46:53.254Z,62.98
2022-10-13T19:49:23.523Z,63.18
2022-10-13T19:51:53.866Z,63.17
2022-10-13T19:54:23.587Z,63.16
2022-10-13T19:56:51.883Z,63.11
2022-10-13T19:59:21.170Z,63.16
2022-10-13T20:01:49.697Z,63.35
2022-10-13T20:04:20.598Z,63.47
2022-10-13T20:06:50.370Z,63.62
2022-10-13T20:09:19.618Z,63.52
2022-10-13T20:11:50.840Z,63.61
2022-10-13T20:14:19.440Z,63.64
2022-10-13T20:16:48.731Z,63.75
2022-10-13T20:19:19.911Z,63.69
2022-10-13T20:21:51.862Z,63.83
2022-10-13T20:24:21.827Z,63.96
2022-10-13T20:26:50.456Z,64.10
2022-10-13T20:29:23.205Z,64.21
2022-10-13T20:31:51.654Z,64.23
2022-10-13T20:34:19.805Z,64.54
2022-10-13T20:36:51.210Z,64.26
2022-10-13T20:39:20.456Z,64.28
2022-10-13T20:41:48.705Z,64.46
2022-10-13T20:44:16.990Z,64.51
2022-10-13T20:46:45.568Z,64.68
2022-10-13T20:49:13.842Z,64.63
2022-10-13T20:51:43.256Z,64.67
2022-10-13T20:54:13.916Z,64.82
2022-10-13T20:56:43.102Z,64.94
2022-10-13T20:59:14.798Z,65.00
2022-10-13T21:01:43.450Z,65.10
2022-10-13T21:04:12.025Z,65.00
2022-10-13T21:06:41.298Z,65.15
2022-10-13T21:09:10.245Z,65.32
2022-10-13T21:11:40.684Z,65.37
2022-10-13T21:14:09.844Z,65.29
2022-10-13T21:16:40.580Z,65.47
2022-10-13T21:19:12.784Z,65.69
2022-10-13T21:21:41.149Z,65.60
2022-10-13T21:24:10.877Z,65.81
2022-10-13T21:26:40.642Z,65.97
2022-10-13T21:29:15.594Z,65.95
2022-10-13T21:31:43.992Z,65.93
2022-10-13T21:34:12.774Z,66.11
2022-10-13T21:36:44.553Z,66.24
2022-10-13T21:39:14.600Z,66.19
2022-10-13T21:41:43.439Z,66.38
2022-10-13T21:44:15.076Z,66.20
2022-10-13T21:46:43.637Z,66.31
2022-10-13T21:49:12.016Z,66.38
2022-10-13T21:51:41.014Z,66.50
2022-10-13T21:54:12.524Z,66.62
2022-10-13T21:56:41.904Z,66.77
2022-10-13T21:59:12.823Z,66.89
2022-10-13T22:01:41.884Z,66.91
2022-10-13T22:04:14.660Z,67.00
2022-10-13T22:06:43.413Z,67.14
2022-10-13T22:09:12.514Z,67.19
2022-10-13T22:11:41.522Z,67.29
2022-10-13T22:14:12.695Z,67.33
2022-10-13T22:16:49.974Z,67.37
2022-10-13T22:19:22.666Z,67.33
2022-10-13T22:21:51.609Z,67.44
2022-10-13T22:24:21.548Z,67.52
2022-10-13T22:26:50.472Z,67.68
2022-10-13T22:29:21.142Z,67.70
2022-10-13T22:31:50.771Z,67.73
2022-10-13T22:34:19.064Z,67.56
2022-10-13T22:36:47.338Z,67.71
2022-10-13T22:39:16.086Z,67.76
2022-10-13T22:41:44.999Z,67.86
2022-10-13T22:44:13.832Z,67.77
2022-10-13T22:46:42.146Z,67.81
2022-10-13T22:49:14.812Z,67.95
2022-10-13T22:51:43.034Z,68.09
2022-10-13T22:54:12.622Z,68.18
2022-10-13T22:56:41.572Z,68.20
2022-10-13T22:59:11.643Z,68.33
2022-10-13T23:01:40.459Z,68.42
2022-10-13T23:04:09.301Z,68.52
2022-10-13T23:06:37.718Z,68.55
2022-10-13T23:09:10.642Z,68.72
2022-10-13T23:11:39.810Z,68.73
2022-10-13T23:14:09.966Z,68.81
2022-10-13T23:16:38.591Z,68.99
2022-10-13T23:19:06.970Z,68.97
2022-10-13T23:21:35.326Z,69.08
2022-10-13T23:24:06.070Z,69.17
2022-10-13T23:26:35.147Z,69.22
2022-10-13T23:29:04.531Z,69.38
2022-10-13T23:31:33.426Z,69.39
2022-10-13T23:34:02.027Z,69.49
2022-10-13T23:36:31.990Z,69.49
2022-10-13T23:39:03.756Z,69.58
2022-10-13T23:41:33.980Z,69.64
2022-10-13T23:44:02.418Z,69.78
2022-10-13T23:46:31.486Z,69.75
2022-10-13T23:48:59.908Z,69.93
2022-10-13T23:51:28.242Z,69.94
2022-10-13T23:53:56.867Z,69.81
2022-10-13T23:56:25.368Z,69.91
2022-10-13T23:58:53.728Z,70.10
